Terminal Aerodrome Forecast
Issued by NWS

Home | Current Version | Previous Version | Text Only | Print | Product List | Glossary On
Versions: 1 2 3 4 5 6 7 8 9 10 11 12 13 14 15 16 17 18
439
FTUS44 KTSA 141917 AAA
TAFFYV
TAF AMD
KFYV 141917Z 1419/1518 17005KT 2SM -DZ BR OVC009
     FM142000 22003KT 4SM -DZ OVC008
     FM142100 22003KT P6SM OVC012
     FM150300 00000KT 5SM BR SCT250
      TEMPO 1505/1509 3SM BR
     FM150900 00000KT 5SM BR OVC110=

USA.gov is the U.S. government's official web portal to all federal, state and local government web resources and services.